Time;durP1;ratioP1;P1;durP2;ratioP2;P2;SDS_P1;SDS_P2;PMS_P1;PMS_P2;Temp;Humidity;BMP_temperature;BMP_pressure;BME280_temperature;BME280_humidity;BME280_pressure;Samples;Min_cycle;Max_cycle;Signal;HPM_P1;HPM_P2
2023/09/23 00:00:49;;;;;;;11.00;6.07;;;;;14.30;100148.00;;;;4921055;28;20234;-69
2023/09/23 00:03:36;;;;;;;8.90;6.03;;;;;14.40;100149.00;;;;4917829;29;20241;-68
2023/09/23 00:06:23;;;;;;;9.47;6.67;;;;;14.30;100150.00;;;;4921596;29;20234;-68
2023/09/23 00:09:10;;;;;;;8.30;5.67;;;;;14.30;100157.00;;;;4919742;29;20904;-67
2023/09/23 00:11:56;;;;;;;9.50;5.77;;;;;14.30;100171.00;;;;4918003;29;20369;-67
2023/09/23 00:14:45;;;;;;;7.63;5.60;;;;;14.30;100179.00;;;;4922423;28;20718;-70
2023/09/23 00:17:32;;;;;;;10.13;5.73;;;;;14.30;100174.00;;;;4928318;29;20228;-70
2023/09/23 00:20:18;;;;;;;9.37;6.63;;;;;14.30;100177.00;;;;4920995;29;20845;-67
2023/09/23 00:23:05;;;;;;;10.97;6.27;;;;;14.30;100190.00;;;;4919344;29;20243;-68
2023/09/23 00:25:52;;;;;;;9.07;5.73;;;;;14.30;100190.00;;;;4922946;29;20241;-69
2023/09/23 00:28:38;;;;;;;10.30;6.53;;;;;14.30;100187.00;;;;4919707;28;20237;-68
2023/09/23 00:31:25;;;;;;;9.00;6.20;;;;;14.40;100190.00;;;;4920660;28;20237;-68
2023/09/23 00:34:13;;;;;;;15.53;7.17;;;;;14.30;100200.00;;;;4912105;29;20313;-69
2023/09/23 00:36:59;;;;;;;11.43;7.53;;;;;14.40;100197.00;;;;4917683;28;20606;-69
2023/09/23 00:39:46;;;;;;;10.10;6.67;;;;;14.30;100201.00;;;;4926450;29;20226;-67
2023/09/23 00:42:32;;;;;;;14.20;7.47;;;;;14.20;100207.00;;;;4918853;29;20237;-70
2023/09/23 00:45:22;;;;;;;11.83;7.27;;;;;14.20;100216.00;;;;4922394;28;20244;-69
2023/09/23 00:48:08;;;;;;;12.87;7.63;;;;;14.20;100227.00;;;;4912975;29;20235;-68
2023/09/23 00:50:56;;;;;;;12.80;8.43;;;;;14.20;100215.00;;;;4922993;29;20292;-70
2023/09/23 00:53:44;;;;;;;13.83;8.13;;;;;14.30;100227.00;;;;4915510;29;20728;-69
2023/09/23 00:56:31;;;;;;;13.20;8.77;;;;;14.20;100224.00;;;;4926303;29;20316;-68
2023/09/23 00:59:17;;;;;;;13.17;8.20;;;;;14.20;100234.00;;;;4915606;28;20360;-71
2023/09/23 01:02:05;;;;;;;12.40;8.43;;;;;14.20;100231.00;;;;4922056;28;20230;-68
2023/09/23 01:04:51;;;;;;;12.23;8.17;;;;;14.10;100232.00;;;;4918238;29;20377;-70
2023/09/23 01:07:40;;;;;;;12.50;7.90;;;;;14.10;100233.00;;;;4924269;29;20622;-68
2023/09/23 01:10:28;;;;;;;14.53;8.27;;;;;14.10;100242.00;;;;4913542;29;20229;-70
2023/09/23 01:13:14;;;;;;;12.33;7.67;;;;;14.10;100236.00;;;;4924670;29;20598;-69
2023/09/23 01:16:06;;;;;;;12.73;7.20;;;;;14.00;100238.00;;;;4920021;29;20245;-68
2023/09/23 01:18:53;;;;;;;10.30;7.20;;;;;14.00;100238.00;;;;4913744;29;20243;-69
2023/09/23 01:21:40;;;;;;;12.53;7.73;;;;;14.00;100251.00;;;;4915506;28;20302;-69
2023/09/23 01:24:30;;;;;;;12.10;7.13;;;;;13.90;100254.00;;;;4913442;29;20730;-67
2023/09/23 01:27:18;;;;;;;11.73;7.70;;;;;13.90;100260.00;;;;4916848;28;20245;-71
2023/09/23 01:30:05;;;;;;;11.93;7.40;;;;;13.90;100263.00;;;;4921378;28;20249;-69
2023/09/23 01:32:53;;;;;;;12.20;7.20;;;;;13.80;100252.00;;;;4912863;29;20374;-68
2023/09/23 01:35:39;;;;;;;10.80;7.10;;;;;13.70;100265.00;;;;4913211;29;20235;-70
2023/09/23 01:38:25;;;;;;;12.50;6.80;;;;;13.70;100269.00;;;;4918953;29;20241;-68
2023/09/23 01:41:15;;;;;;;13.77;7.17;;;;;13.60;100262.00;;;;4916859;29;20334;-69
2023/09/23 01:44:01;;;;;;;12.33;7.50;;;;;13.50;100266.00;;;;4924897;29;21031;-69
2023/09/23 01:46:47;;;;;;;15.77;7.33;;;;;13.40;100257.00;;;;4918414;29;21030;-71
2023/09/23 01:49:34;;;;;;;14.50;6.60;;;;;13.50;100264.00;;;;4929390;28;20244;-70
2023/09/23 01:52:20;;;;;;;13.37;6.47;;;;;13.40;100268.00;;;;4912607;29;20236;-69
2023/09/23 01:55:07;;;;;;;9.53;6.37;;;;;13.30;100282.00;;;;4912280;29;20958;-67
2023/09/23 01:57:55;;;;;;;10.37;6.60;;;;;13.20;100284.00;;;;4925093;28;20716;-66
2023/09/23 02:00:42;;;;;;;11.63;6.93;;;;;13.20;100291.00;;;;4912806;29;20286;-69
2023/09/23 02:03:28;;;;;;;12.20;6.50;;;;;13.20;100291.00;;;;4916374;29;20229;-72
2023/09/23 02:06:15;;;;;;;12.60;6.30;;;;;13.20;100299.00;;;;4913080;29;20240;-68
2023/09/23 02:09:01;;;;;;;12.13;6.40;;;;;13.20;100302.00;;;;4922432;29;20232;-70
2023/09/23 02:11:48;;;;;;;11.40;5.70;;;;;13.20;100306.00;;;;4923123;29;20242;-70
2023/09/23 02:14:40;;;;;;;8.57;5.57;;;;;13.20;100302.00;;;;4918065;29;20232;-68
2023/09/23 02:17:26;;;;;;;9.63;5.80;;;;;13.10;100310.00;;;;4925392;29;20232;-69
2023/09/23 02:20:18;;;;;;;10.57;5.67;;;;;13.10;100311.00;;;;4927155;29;20232;-72
2023/09/23 02:23:05;;;;;;;8.80;5.40;;;;;13.00;100314.00;;;;4920333;28;20229;-68
2023/09/23 02:25:52;;;;;;;9.57;5.60;;;;;12.90;100316.00;;;;4921483;28;20250;-69
2023/09/23 02:28:40;;;;;;;7.27;4.67;;;;;12.90;100317.00;;;;4916754;28;20732;-70
2023/09/23 02:31:28;;;;;;;7.83;4.70;;;;;12.80;100338.00;;;;4923389;29;20728;-69
2023/09/23 02:34:17;;;;;;;8.77;5.20;;;;;12.90;100347.00;;;;4915651;29;20261;-69
2023/09/23 02:37:04;;;;;;;9.27;5.87;;;;;12.90;100339.00;;;;4920142;28;20328;-67
2023/09/23 02:39:50;;;;;;;11.60;6.40;;;;;13.00;100335.00;;;;4918278;28;20228;-69
2023/09/23 02:42:37;;;;;;;12.40;6.20;;;;;13.00;100342.00;;;;4918957;28;20228;-65
2023/09/23 02:45:23;;;;;;;13.83;7.73;;;;;13.20;100349.00;;;;4922953;29;20244;-69
2023/09/23 02:48:13;;;;;;;13.93;8.43;;;;;13.20;100351.00;;;;4922255;29;20233;-67
2023/09/23 02:51:03;;;;;;;16.40;7.97;;;;;13.20;100359.00;;;;4919310;29;20349;-67
2023/09/23 02:53:50;;;;;;;14.67;8.53;;;;;13.20;100357.00;;;;4926341;29;20834;-71
2023/09/23 02:56:37;;;;;;;16.07;8.63;;;;;13.20;100355.00;;;;4918824;28;20284;-70
2023/09/23 02:59:26;;;;;;;15.03;8.73;;;;;13.30;100359.00;;;;4921398;28;20237;-73
2023/09/23 03:02:20;;;;;;;16.77;9.67;;;;;13.30;100354.00;;;;4930280;28;20376;-68
2023/09/23 03:05:09;;;;;;;19.87;10.77;;;;;13.40;100353.00;;;;4919389;29;20813;-69
2023/09/23 03:07:57;;;;;;;19.90;10.63;;;;;13.40;100354.00;;;;4918731;29;20237;-70
2023/09/23 03:10:46;;;;;;;22.30;11.27;;;;;13.40;100354.00;;;;4917421;28;20232;-68
2023/09/23 03:13:34;;;;;;;21.80;11.13;;;;;13.40;100362.00;;;;4918588;28;20235;-68
2023/09/23 03:16:28;;;;;;;23.17;11.20;;;;;13.40;100365.00;;;;4920651;29;20232;-71
2023/09/23 03:19:15;;;;;;;19.40;9.73;;;;;13.50;100361.00;;;;4916136;29;20362;-68
2023/09/23 03:22:03;;;;;;;21.90;11.90;;;;;13.50;100361.00;;;;4921124;29;20974;-69
2023/09/23 03:24:50;;;;;;;21.73;10.57;;;;;13.50;100370.00;;;;4917288;29;20321;-72
2023/09/23 03:27:38;;;;;;;20.43;10.87;;;;;13.50;100371.00;;;;4920930;29;20232;-71
2023/09/23 03:30:25;;;;;;;28.63;12.47;;;;;13.50;100366.00;;;;4926745;29;20236;-69
2023/09/23 03:33:12;;;;;;;26.07;12.97;;;;;13.50;100366.00;;;;4926220;29;20271;-70
2023/09/23 03:35:58;;;;;;;22.23;11.93;;;;;13.60;100361.00;;;;4920236;29;20255;-67
2023/09/23 03:38:47;;;;;;;20.47;11.50;;;;;13.60;100368.00;;;;4912315;29;20229;-70
2023/09/23 03:41:34;;;;;;;26.03;12.27;;;;;13.60;100371.00;;;;4911285;29;20754;-70
2023/09/23 03:44:21;;;;;;;27.73;13.33;;;;;13.60;100372.00;;;;4918509;29;20755;-70
2023/09/23 03:47:07;;;;;;;24.40;12.97;;;;;13.60;100373.00;;;;4920307;29;20889;-70
2023/09/23 03:49:54;;;;;;;18.93;12.27;;;;;13.60;100362.00;;;;4925913;28;20237;-69
2023/09/23 03:52:41;;;;;;;23.87;12.87;;;;;13.60;100363.00;;;;4924415;29;20241;-72
2023/09/23 03:55:29;;;;;;;25.23;13.27;;;;;13.60;100371.00;;;;4924295;29;20829;-72
2023/09/23 03:58:17;;;;;;;26.93;13.10;;;;;13.60;100376.00;;;;4917982;29;20229;-70
2023/09/23 04:01:06;;;;;;;21.47;12.07;;;;;13.60;100369.00;;;;4922939;29;20719;-69
2023/09/23 04:03:54;;;;;;;20.00;11.40;;;;;13.60;100373.00;;;;4939091;29;20245;-70
2023/09/23 04:06:40;;;;;;;24.13;11.50;;;;;13.60;100382.00;;;;4937739;29;20607;-69
2023/09/23 04:09:26;;;;;;;18.53;10.77;;;;;13.70;100385.00;;;;4934401;29;20416;-70
2023/09/23 04:12:14;;;;;;;18.07;10.83;;;;;13.60;100392.00;;;;4928990;28;20269;-71
2023/09/23 04:15:02;;;;;;;18.17;10.00;;;;;13.60;100388.00;;;;4930679;28;20240;-71
2023/09/23 04:17:49;;;;;;;15.77;9.23;;;;;13.60;100386.00;;;;4940826;29;20244;-70
2023/09/23 04:20:35;;;;;;;18.03;9.40;;;;;13.60;100384.00;;;;4930481;28;20297;-71
2023/09/23 04:23:22;;;;;;;20.60;9.67;;;;;13.60;100392.00;;;;4938622;29;20228;-72
2023/09/23 04:26:08;;;;;;;15.33;9.73;;;;;13.60;100392.00;;;;4928627;29;20240;-72
2023/09/23 04:28:56;;;;;;;18.97;8.83;;;;;13.60;100398.00;;;;4936083;29;20310;-72
2023/09/23 04:31:43;;;;;;;17.20;8.80;;;;;13.60;100400.00;;;;4924869;28;20787;-70
2023/09/23 04:34:29;;;;;;;17.53;9.47;;;;;13.60;100405.00;;;;4912000;29;20305;-71
2023/09/23 04:37:15;;;;;;;17.10;9.13;;;;;13.60;100406.00;;;;4912129;29;20305;-72
2023/09/23 04:40:02;;;;;;;19.00;9.43;;;;;13.60;100410.00;;;;4919108;29;20726;-71
2023/09/23 04:42:48;;;;;;;17.37;9.33;;;;;13.60;100419.00;;;;4916447;29;20254;-69
2023/09/23 04:45:36;;;;;;;16.53;9.53;;;;;13.60;100419.00;;;;4913931;29;20661;-70
2023/09/23 04:48:24;;;;;;;18.07;9.50;;;;;13.60;100417.00;;;;4912532;29;20237;-70
2023/09/23 04:51:11;;;;;;;17.87;8.57;;;;;13.60;100424.00;;;;4916768;29;20713;-71
2023/09/23 04:53:57;;;;;;;15.77;8.63;;;;;13.50;100429.00;;;;4913490;29;20829;-68
2023/09/23 04:56:44;;;;;;;15.37;8.60;;;;;13.60;100435.00;;;;4920946;29;20611;-69
2023/09/23 04:59:32;;;;;;;17.63;8.97;;;;;13.50;100434.00;;;;4909899;29;20282;-68
2023/09/23 05:02:20;;;;;;;20.03;8.90;;;;;13.60;100428.00;;;;4912329;29;20253;-66
2023/09/23 05:05:09;;;;;;;16.47;9.50;;;;;13.60;100443.00;;;;4914652;29;20336;-68
2023/09/23 05:07:56;;;;;;;17.63;8.93;;;;;13.60;100441.00;;;;4916663;29;20288;-68
2023/09/23 05:10:42;;;;;;;16.77;9.23;;;;;13.60;100444.00;;;;4924712;29;20638;-68
2023/09/23 05:13:29;;;;;;;16.10;9.70;;;;;13.60;100447.00;;;;4923172;29;20280;-68
2023/09/23 05:16:16;;;;;;;18.93;9.40;;;;;13.60;100455.00;;;;4923783;29;20261;-70
2023/09/23 05:19:05;;;;;;;17.80;9.70;;;;;13.50;100474.00;;;;4912683;29;20236;-66
2023/09/23 05:21:51;;;;;;;17.87;9.93;;;;;13.50;100476.00;;;;4918636;29;20236;-71
2023/09/23 05:24:38;;;;;;;16.40;10.83;;;;;13.60;100474.00;;;;4911326;29;20683;-69
2023/09/23 05:27:25;;;;;;;19.47;10.70;;;;;13.50;100485.00;;;;4912786;29;20369;-71
2023/09/23 05:30:12;;;;;;;15.53;10.17;;;;;13.50;100486.00;;;;4916265;29;20236;-69
2023/09/23 05:32:58;;;;;;;17.00;11.03;;;;;13.50;100501.00;;;;4900962;29;20237;-69
2023/09/23 05:35:47;;;;;;;17.90;10.17;;;;;13.50;100499.00;;;;4918326;29;20381;-69
2023/09/23 05:38:36;;;;;;;19.93;10.77;;;;;13.50;100508.00;;;;4916280;29;21008;-68
2023/09/23 05:41:24;;;;;;;19.63;11.17;;;;;13.50;100507.00;;;;4908403;29;20814;-67
2023/09/23 05:44:12;;;;;;;18.73;10.23;;;;;13.50;100517.00;;;;4912684;29;20240;-66
2023/09/23 05:46:58;;;;;;;18.40;10.80;;;;;13.50;100519.00;;;;4920898;29;20284;-66
2023/09/23 05:49:48;;;;;;;17.30;11.10;;;;;13.50;100520.00;;;;4924870;28;20471;-71
2023/09/23 05:52:36;;;;;;;21.33;11.03;;;;;13.40;100543.00;;;;4914534;29;20236;-68
2023/09/23 05:55:23;;;;;;;22.13;12.00;;;;;13.50;100547.00;;;;4921240;29;20313;-68
2023/09/23 05:58:09;;;;;;;20.23;12.13;;;;;13.60;100553.00;;;;4914371;29;20373;-71
2023/09/23 06:00:56;;;;;;;21.07;11.57;;;;;13.60;100551.00;;;;4915194;29;20393;-66
2023/09/23 06:03:42;;;;;;;20.47;12.30;;;;;13.60;100564.00;;;;4918117;29;20302;-66
2023/09/23 06:06:29;;;;;;;18.73;12.20;;;;;13.60;100571.00;;;;4922306;29;20241;-67
2023/09/23 06:09:18;;;;;;;22.57;12.17;;;;;13.70;100581.00;;;;4917060;29;20289;-68
2023/09/23 06:12:07;;;;;;;22.30;12.30;;;;;13.60;100575.00;;;;4920809;29;20242;-67
2023/09/23 06:14:54;;;;;;;21.30;11.83;;;;;13.60;100586.00;;;;4912192;29;20249;-65
2023/09/23 06:17:40;;;;;;;20.10;12.40;;;;;13.60;100589.00;;;;4920010;29;20233;-67
2023/09/23 06:20:26;;;;;;;19.30;12.33;;;;;13.60;100577.00;;;;4921338;29;20709;-69
2023/09/23 06:23:13;;;;;;;20.40;12.17;;;;;13.70;100583.00;;;;4923214;29;20737;-68
2023/09/23 06:26:02;;;;;;;21.40;12.37;;;;;13.70;100593.00;;;;4925360;28;20264;-69
2023/09/23 06:28:49;;;;;;;22.07;12.37;;;;;13.70;100590.00;;;;4927807;29;20304;-68
2023/09/23 06:31:35;;;;;;;19.87;11.57;;;;;13.70;100600.00;;;;4920783;29;20334;-67
2023/09/23 06:34:21;;;;;;;18.53;11.27;;;;;13.70;100612.00;;;;4927406;28;20615;-70
2023/09/23 06:37:07;;;;;;;18.67;10.97;;;;;13.70;100616.00;;;;4928661;28;20281;-71
2023/09/23 06:39:53;;;;;;;17.73;11.80;;;;;13.70;100619.00;;;;4931778;29;20229;-71
2023/09/23 06:42:41;;;;;;;14.50;10.70;;;;;13.70;100639.00;;;;4920860;29;20725;-67
2023/09/23 06:45:27;;;;;;;18.13;11.27;;;;;13.70;100621.00;;;;4920539;29;21072;-70
2023/09/23 06:48:14;;;;;;;18.30;11.60;;;;;13.80;100635.00;;;;4922816;29;20233;-68
2023/09/23 06:51:01;;;;;;;17.20;11.40;;;;;13.70;100628.00;;;;4924359;29;20615;-67
2023/09/23 06:53:48;;;;;;;18.70;12.57;;;;;13.80;100637.00;;;;4919771;29;20247;-69
2023/09/23 06:56:36;;;;;;;18.13;11.97;;;;;13.60;100632.00;;;;4923485;29;20263;-67
2023/09/23 06:59:24;;;;;;;21.23;12.37;;;;;13.70;100648.00;;;;4915396;29;21046;-71
2023/09/23 07:02:10;;;;;;;18.00;12.20;;;;;13.70;100644.00;;;;4924080;29;20233;-68
2023/09/23 07:04:56;;;;;;;20.13;11.87;;;;;13.80;100650.00;;;;4910579;29;20386;-68
2023/09/23 07:07:43;;;;;;;20.93;13.37;;;;;13.80;100652.00;;;;4930111;29;20253;-69
2023/09/23 07:10:29;;;;;;;18.00;12.37;;;;;13.90;100653.00;;;;4912156;29;20252;-66
2023/09/23 07:13:16;;;;;;;19.50;11.67;;;;;13.90;100661.00;;;;4919342;29;20236;-66
2023/09/23 07:16:03;;;;;;;21.43;12.67;;;;;14.00;100666.00;;;;4919140;29;20337;-67
2023/09/23 07:18:50;;;;;;;21.17;12.30;;;;;14.10;100661.00;;;;4923009;29;20735;-68
2023/09/23 07:21:37;;;;;;;20.73;13.03;;;;;14.10;100674.00;;;;4922076;29;20731;-69
2023/09/23 07:24:24;;;;;;;21.60;12.93;;;;;14.10;100671.00;;;;4913353;29;20366;-68
2023/09/23 07:27:10;;;;;;;19.53;12.50;;;;;14.10;100673.00;;;;4923406;29;21068;-68
2023/09/23 07:29:57;;;;;;;17.03;11.73;;;;;14.40;100677.00;;;;4919970;29;20239;-67
2023/09/23 07:32:45;;;;;;;19.00;12.10;;;;;14.40;100684.00;;;;4926636;29;20233;-67
2023/09/23 07:35:32;;;;;;;19.50;12.67;;;;;14.40;100685.00;;;;4909095;29;20361;-67
2023/09/23 07:38:18;;;;;;;19.33;12.00;;;;;14.30;100698.00;;;;4919525;28;20262;-68
2023/09/23 07:41:05;;;;;;;19.30;12.13;;;;;14.30;100694.00;;;;4919804;28;20238;-69
2023/09/23 07:43:51;;;;;;;21.20;12.57;;;;;14.30;100710.00;;;;4917908;28;21466;-69
2023/09/23 07:46:37;;;;;;;21.77;12.90;;;;;14.40;100710.00;;;;4922313;29;20314;-67
2023/09/23 07:49:25;;;;;;;19.87;13.20;;;;;14.30;100718.00;;;;4920086;28;20297;-70
2023/09/23 07:52:12;;;;;;;21.40;13.00;;;;;14.20;100720.00;;;;4920881;28;20309;-68
2023/09/23 07:54:58;;;;;;;18.87;12.57;;;;;14.30;100730.00;;;;4914635;29;20290;-68
2023/09/23 07:57:44;;;;;;;18.67;12.97;;;;;14.30;100723.00;;;;4919522;28;20398;-70
2023/09/23 08:00:31;;;;;;;18.67;12.67;;;;;14.30;100732.00;;;;4914577;29;20361;-67
2023/09/23 08:03:17;;;;;;;19.03;12.10;;;;;14.20;100737.00;;;;4919332;29;20240;-69
2023/09/23 08:06:05;;;;;;;18.43;11.37;;;;;14.30;100739.00;;;;4919428;28;20390;-68
2023/09/23 08:08:51;;;;;;;18.17;11.43;;;;;14.30;100747.00;;;;4925380;29;20354;-68
2023/09/23 08:11:37;;;;;;;19.43;12.37;;;;;14.30;100751.00;;;;4925824;29;20241;-69
2023/09/23 08:14:24;;;;;;;16.83;12.27;;;;;14.30;100747.00;;;;4918545;29;20232;-68
2023/09/23 08:17:10;;;;;;;17.80;12.37;;;;;14.30;100755.00;;;;4922934;29;20798;-69
2023/09/23 08:19:56;;;;;;;17.53;12.30;;;;;14.40;100762.00;;;;4919298;28;20265;-69
2023/09/23 08:22:44;;;;;;;15.93;11.70;;;;;14.40;100765.00;;;;4928518;29;20265;-70
2023/09/23 08:25:31;;;;;;;21.70;12.60;;;;;14.40;100767.00;;;;4918868;29;20240;-70
2023/09/23 08:28:18;;;;;;;19.67;12.20;;;;;14.40;100768.00;;;;4920906;29;20253;-70
2023/09/23 08:31:04;;;;;;;15.80;11.67;;;;;14.50;100770.00;;;;4918867;28;20229;-70
2023/09/23 08:33:50;;;;;;;16.90;11.47;;;;;14.60;100782.00;;;;4925186;29;20236;-70
2023/09/23 08:36:36;;;;;;;15.83;10.40;;;;;14.60;100782.00;;;;4917276;29;20775;-70
2023/09/23 08:39:24;;;;;;;15.30;10.27;;;;;14.50;100778.00;;;;4917704;29;20807;-67
2023/09/23 08:42:11;;;;;;;13.23;9.77;;;;;14.80;100790.00;;;;4918033;28;20250;-68
2023/09/23 08:44:58;;;;;;;13.20;9.27;;;;;15.00;100783.00;;;;4918004;29;20385;-70
2023/09/23 08:47:45;;;;;;;9.50;7.73;;;;;15.10;100772.00;;;;4921387;29;20288;-69
2023/09/23 08:50:32;;;;;;;10.57;7.40;;;;;15.30;100784.00;;;;4918465;28;20625;-68
2023/09/23 08:53:22;;;;;;;10.93;7.50;;;;;15.40;100778.00;;;;4911584;29;20319;-68
2023/09/23 08:56:11;;;;;;;9.53;7.03;;;;;15.50;100788.00;;;;4911357;29;20239;-68
2023/09/23 08:58:57;;;;;;;8.03;6.23;;;;;15.40;100783.00;;;;4908754;29;20235;-69
2023/09/23 09:01:44;;;;;;;9.27;6.37;;;;;15.50;100782.00;;;;4922411;28;20239;-67
2023/09/23 09:04:31;;;;;;;10.90;7.27;;;;;15.50;100786.00;;;;4919386;28;20229;-66
2023/09/23 09:07:17;;;;;;;10.73;7.17;;;;;15.60;100789.00;;;;4927660;29;20380;-67
2023/09/23 09:10:04;;;;;;;9.53;6.50;;;;;15.50;100797.00;;;;4920110;29;20231;-68
2023/09/23 09:12:53;;;;;;;12.20;6.50;;;;;15.70;100800.00;;;;4924979;29;20316;-69
2023/09/23 09:15:42;;;;;;;8.83;6.27;;;;;15.70;100803.00;;;;4925278;29;20739;-69
2023/09/23 09:18:29;;;;;;;13.73;7.50;;;;;15.80;100800.00;;;;4917683;29;20357;-66
2023/09/23 09:21:16;;;;;;;10.27;6.90;;;;;15.90;100811.00;;;;4913102;29;20224;-66
2023/09/23 09:24:02;;;;;;;10.70;6.53;;;;;15.90;100804.00;;;;4923154;29;20224;-70
2023/09/23 09:26:49;;;;;;;12.90;7.20;;;;;16.00;100819.00;;;;4919309;28;20288;-65
2023/09/23 09:29:37;;;;;;;14.43;7.47;;;;;15.80;100817.00;;;;4919482;29;20267;-70
2023/09/23 09:32:29;;;;;;;6.93;6.10;;;;;15.70;100822.00;;;;4916900;29;20243;-69
2023/09/23 09:35:18;;;;;;;8.30;6.47;;;;;15.60;100830.00;;;;4926254;29;20762;-68
2023/09/23 09:38:06;;;;;;;11.63;7.27;;;;;15.70;100834.00;;;;4917054;29;20234;-68
2023/09/23 09:41:04;;;;;;;8.77;6.70;;;;;15.70;100835.00;;;;4914804;29;20281;-68
2023/09/23 09:43:51;;;;;;;9.63;6.10;;;;;15.70;100839.00;;;;4917664;29;20609;-69
2023/09/23 09:46:41;;;;;;;8.10;6.27;;;;;15.70;100846.00;;;;4921040;29;20240;-68
2023/09/23 09:49:27;;;;;;;10.00;6.70;;;;;15.60;100851.00;;;;4922685;28;20247;-69
2023/09/23 09:52:15;;;;;;;10.47;6.17;;;;;15.70;100850.00;;;;4921996;29;20232;-67
2023/09/23 09:55:05;;;;;;;11.07;5.90;;;;;15.80;100856.00;;;;4917398;29;20246;-69
2023/09/23 09:57:55;;;;;;;10.77;6.10;;;;;15.80;100850.00;;;;4917606;29;20256;-67
2023/09/23 10:00:43;;;;;;;8.47;5.43;;;;;15.80;100849.00;;;;4921027;29;20237;-69
2023/09/23 10:03:32;;;;;;;8.67;5.13;;;;;15.90;100852.00;;;;4926358;29;20718;-68
2023/09/23 10:06:19;;;;;;;9.83;4.50;;;;;15.90;100856.00;;;;4922459;29;20242;-69
2023/09/23 10:09:14;;;;;;;5.97;4.13;;;;;16.00;100849.00;;;;4921301;29;20373;-69
2023/09/23 10:12:04;;;;;;;5.33;3.57;;;;;16.20;100856.00;;;;4927373;29;20685;-68
2023/09/23 10:14:54;;;;;;;10.23;3.90;;;;;16.60;100863.00;;;;4923803;29;20240;-69
2023/09/23 10:17:43;;;;;;;3.97;2.80;;;;;16.90;100857.00;;;;4919833;29;20229;-69
2023/09/23 10:20:34;;;;;;;8.43;2.50;;;;;17.10;100853.00;;;;4911311;29;20253;-67
2023/09/23 10:23:21;;;;;;;7.47;2.73;;;;;17.10;100869.00;;;;4920528;29;20280;-68
2023/09/23 10:26:14;;;;;;;4.63;2.37;;;;;17.20;100867.00;;;;4917382;28;20317;-69
2023/09/23 10:29:04;;;;;;;3.00;2.13;;;;;17.30;100855.00;;;;4905641;29;20763;-67
2023/09/23 10:31:50;;;;;;;9.47;2.40;;;;;17.50;100871.00;;;;4925269;29;20238;-68
2023/09/23 10:34:45;;;;;;;4.73;2.27;;;;;17.60;100866.00;;;;4918788;29;20229;-71
2023/09/23 10:37:35;;;;;;;5.50;2.47;;;;;17.50;100860.00;;;;4918566;29;20264;-66
2023/09/23 10:40:21;;;;;;;4.53;2.30;;;;;17.50;100873.00;;;;4920050;29;20244;-67
2023/09/23 10:43:08;;;;;;;8.47;2.30;;;;;17.40;100867.00;;;;4920090;29;20283;-68
2023/09/23 10:45:54;;;;;;;3.53;2.23;;;;;17.60;100878.00;;;;4920757;29;20236;-69
2023/09/23 10:48:41;;;;;;;3.87;2.10;;;;;18.00;100880.00;;;;4919177;29;20619;-69
2023/09/23 10:51:29;;;;;;;6.27;2.20;;;;;18.10;100872.00;;;;4925506;29;20292;-70
2023/09/23 10:54:17;;;;;;;3.30;2.20;;;;;18.00;100880.00;;;;4918425;29;20277;-69
2023/09/23 10:57:04;;;;;;;2.60;2.10;;;;;18.00;100889.00;;;;4922384;29;20297;-69
2023/09/23 10:59:51;;;;;;;7.03;2.23;;;;;17.70;100883.00;;;;4919672;29;20237;-69
2023/09/23 11:02:37;;;;;;;3.57;2.20;;;;;17.70;100894.00;;;;4914695;29;20774;-67
2023/09/23 11:05:25;;;;;;;3.23;2.23;;;;;17.70;100898.00;;;;4919816;28;20822;-69
2023/09/23 11:08:13;;;;;;;4.63;2.23;;;;;17.60;100905.00;;;;4924915;29;20225;-68
2023/09/23 11:11:01;;;;;;;3.13;2.07;;;;;17.60;100914.00;;;;4926445;29;20241;-69
2023/09/23 11:13:49;;;;;;;4.60;2.10;;;;;17.50;100907.00;;;;4923136;29;20241;-70
2023/09/23 11:16:36;;;;;;;4.10;1.97;;;;;17.60;100925.00;;;;4916295;29;20275;-68
2023/09/23 11:19:22;;;;;;;4.77;2.30;;;;;17.70;100933.00;;;;4927468;29;20233;-69
2023/09/23 11:22:08;;;;;;;4.97;2.00;;;;;17.50;100929.00;;;;4920983;28;20284;-65
2023/09/23 11:24:56;;;;;;;3.20;2.10;;;;;17.50;100926.00;;;;4920590;28;20240;-69
2023/09/23 11:27:47;;;;;;;3.63;1.70;;;;;17.50;100936.00;;;;4922995;29;20237;-67
2023/09/23 11:30:34;;;;;;;4.23;2.03;;;;;17.30;100930.00;;;;4921447;29;20608;-69
2023/09/23 11:33:21;;;;;;;4.30;2.00;;;;;17.20;100937.00;;;;4916944;29;20229;-68
2023/09/23 11:36:08;;;;;;;4.37;2.27;;;;;17.10;100944.00;;;;4923300;29;20730;-68
2023/09/23 11:38:54;;;;;;;5.07;2.13;;;;;17.00;100952.00;;;;4924928;28;20233;-68
2023/09/23 11:41:41;;;;;;;8.17;2.33;;;;;17.10;100956.00;;;;4919149;29;20245;-68
2023/09/23 11:44:31;;;;;;;3.03;2.20;;;;;17.00;100957.00;;;;4924842;29;20244;-69
2023/09/23 11:47:20;;;;;;;3.97;2.47;;;;;17.10;100965.00;;;;4920345;29;20240;-67
2023/09/23 11:50:07;;;;;;;6.50;2.80;;;;;17.10;100967.00;;;;4920714;28;20244;-69
2023/09/23 11:52:54;;;;;;;3.83;2.47;;;;;17.20;100958.00;;;;4921666;29;20304;-69
2023/09/23 11:55:41;;;;;;;4.83;2.63;;;;;17.30;100956.00;;;;4919402;28;20288;-68
2023/09/23 11:58:28;;;;;;;6.30;2.60;;;;;17.30;100957.00;;;;4928291;29;20937;-68
2023/09/23 12:01:16;;;;;;;4.53;2.47;;;;;17.70;100965.00;;;;4922853;28;20249;-68
2023/09/23 12:04:02;;;;;;;3.80;2.90;;;;;18.20;100965.00;;;;4925252;28;20338;-68
2023/09/23 12:06:49;;;;;;;5.30;2.50;;;;;18.50;100969.00;;;;4924897;28;20913;-67
2023/09/23 12:09:35;;;;;;;4.43;2.40;;;;;18.90;100968.00;;;;4925006;28;20378;-68
2023/09/23 12:12:21;;;;;;;4.53;2.57;;;;;19.10;100958.00;;;;4920903;29;20273;-70
2023/09/23 12:15:09;;;;;;;3.73;2.50;;;;;19.10;100956.00;;;;4921853;29;20297;-67
2023/09/23 12:17:57;;;;;;;3.40;2.30;;;;;19.00;100970.00;;;;4924362;28;20277;-67
2023/09/23 12:20:43;;;;;;;3.60;2.30;;;;;19.20;100974.00;;;;4918545;29;20232;-68
2023/09/23 12:23:30;;;;;;;2.93;2.20;;;;;19.30;100988.00;;;;4918843;29;20241;-68
2023/09/23 12:26:18;;;;;;;3.43;2.00;;;;;19.20;100984.00;;;;4924425;29;20703;-69
2023/09/23 12:29:05;;;;;;;3.10;2.10;;;;;19.20;101000.00;;;;4921847;29;20775;-69
2023/09/23 12:31:51;;;;;;;4.13;1.90;;;;;19.10;100990.00;;;;4924900;28;20241;-69
2023/09/23 12:34:39;;;;;;;2.87;1.90;;;;;19.10;100995.00;;;;4924526;29;20237;-68
2023/09/23 12:37:27;;;;;;;2.53;1.93;;;;;19.00;100989.00;;;;4924050;29;20237;-70
2023/09/23 12:40:13;;;;;;;4.10;2.03;;;;;19.00;100994.00;;;;4922060;29;20317;-69
2023/09/23 12:43:00;;;;;;;3.20;1.70;;;;;19.10;100996.00;;;;4927783;29;20365;-67
2023/09/23 12:45:48;;;;;;;4.57;2.03;;;;;19.00;100997.00;;;;4914641;29;20993;-68
2023/09/23 12:48:35;;;;;;;5.30;2.00;;;;;18.90;100996.00;;;;4919319;29;20236;-69
2023/09/23 12:51:22;;;;;;;3.20;1.93;;;;;18.70;101013.00;;;;4923892;28;20229;-68
2023/09/23 12:54:10;;;;;;;2.57;1.90;;;;;18.40;101011.00;;;;4922887;28;20229;-68
2023/09/23 12:56:57;;;;;;;6.10;2.07;;;;;18.40;101019.00;;;;4928798;29;20241;-68
2023/09/23 12:59:43;;;;;;;2.33;1.70;;;;;18.60;101025.00;;;;4928653;29;20240;-69
2023/09/23 13:02:32;;;;;;;4.13;1.97;;;;;18.80;101027.00;;;;4909015;29;20240;-68
2023/09/23 13:05:19;;;;;;;3.23;1.90;;;;;19.00;101030.00;;;;4924153;29;20732;-66
2023/09/23 13:08:07;;;;;;;4.23;2.00;;;;;19.30;101031.00;;;;4921462;29;20312;-68
2023/09/23 13:10:54;;;;;;;3.03;1.70;;;;;19.50;101030.00;;;;4920668;29;20254;-68
2023/09/23 13:13:41;;;;;;;2.70;1.40;;;;;19.40;101030.00;;;;4918076;29;20271;-66
2023/09/23 13:16:36;;;;;;;2.90;1.60;;;;;19.50;101037.00;;;;4917409;29;20237;-67
2023/09/23 13:19:22;;;;;;;3.33;2.00;;;;;19.60;101039.00;;;;4927357;29;20358;-70
2023/09/23 13:22:12;;;;;;;4.30;1.70;;;;;19.70;101034.00;;;;4925607;29;20828;-67
2023/09/23 13:25:03;;;;;;;2.80;1.70;;;;;19.90;101031.00;;;;4924620;28;20237;-68
2023/09/23 13:27:50;;;;;;;2.37;1.53;;;;;19.90;101026.00;;;;4926045;28;20241;-68
2023/09/23 13:30:37;;;;;;;3.23;1.60;;;;;20.20;101032.00;;;;4927151;29;20341;-68
2023/09/23 13:33:24;;;;;;;6.53;1.90;;;;;20.30;101039.00;;;;4917909;29;20239;-70
2023/09/23 13:36:11;;;;;;;7.83;1.70;;;;;20.50;101034.00;;;;4919857;29;20626;-68